sensor_id;sensor_type;location;lat;lon;timestamp;pressure;altitude;pressure_sealevel;temperature;humidity
69982;BME280;57319;56.274;43.980;2022-09-03T00:00:46;99772.31;;;7.37;78.15
69982;BME280;57319;56.274;43.980;2022-09-03T00:03:48;99768.06;;;7.42;78.18
69982;BME280;57319;56.274;43.980;2022-09-03T00:06:19;99764.63;;;7.27;78.93
69982;BME280;57319;56.274;43.980;2022-09-03T00:08:57;99778.28;;;7.33;78.47
69982;BME280;57319;56.274;43.980;2022-09-03T00:14:36;99778.28;;;7.39;78.70
69982;BME280;57319;56.274;43.980;2022-09-03T00:17:31;99777.41;;;7.32;79.21
69982;BME280;57319;56.274;43.980;2022-09-03T00:20:06;99789.38;;;7.35;79.10
69982;BME280;57319;56.274;43.980;2022-09-03T00:22:36;99788.53;;;7.34;79.12
69982;BME280;57319;56.274;43.980;2022-09-03T00:25:05;99794.50;;;7.33;79.53
69982;BME280;57319;56.274;43.980;2022-09-03T00:27:36;99791.94;;;7.33;79.28
69982;BME280;57319;56.274;43.980;2022-09-03T00:30:08;99803.88;;;7.33;79.46
69982;BME280;57319;56.274;43.980;2022-09-03T00:32:45;99804.72;;;7.33;80.04
69982;BME280;57319;56.274;43.980;2022-09-03T00:35:38;99807.28;;;7.32;79.82
69982;BME280;57319;56.274;43.980;2022-09-03T00:38:05;99809.81;;;7.24;80.05
69982;BME280;57319;56.274;43.980;2022-09-03T00:45:56;99819.22;;;7.23;80.41
69982;BME280;57319;56.274;43.980;2022-09-03T00:51:36;99825.22;;;7.27;79.83
69982;BME280;57319;56.274;43.980;2022-09-03T00:54:30;99827.78;;;7.25;79.82
69982;BME280;57319;56.274;43.980;2022-09-03T01:02:53;99832.03;;;7.22;79.86
69982;BME280;57319;56.274;43.980;2022-09-03T01:05:27;99830.31;;;7.24;80.01
69982;BME280;57319;56.274;43.980;2022-09-03T01:11:31;99840.59;;;7.27;79.71
69982;BME280;57319;56.274;43.980;2022-09-03T01:16:58;99837.19;;;7.29;79.58
69982;BME280;57319;56.274;43.980;2022-09-03T01:22:38;99838.00;;;7.24;80.03
69982;BME280;57319;56.274;43.980;2022-09-03T01:25:14;99850.81;;;7.32;79.67
69982;BME280;57319;56.274;43.980;2022-09-03T01:28:04;99847.41;;;7.33;79.88
69982;BME280;57319;56.274;43.980;2022-09-03T01:30:37;99854.22;;;7.29;79.64
69982;BME280;57319;56.274;43.980;2022-09-03T01:33:43;99858.50;;;7.28;79.63
69982;BME280;57319;56.274;43.980;2022-09-03T01:42:22;99869.63;;;7.35;79.27
69982;BME280;57319;56.274;43.980;2022-09-03T01:51:04;99870.50;;;7.43;78.90
69982;BME280;57319;56.274;43.980;2022-09-03T01:58:53;99869.63;;;7.43;79.24
69982;BME280;57319;56.274;43.980;2022-09-03T02:01:44;99878.13;;;7.39;79.28
69982;BME280;57319;56.274;43.980;2022-09-03T02:04:18;99880.72;;;7.45;79.33
69982;BME280;57319;56.274;43.980;2022-09-03T02:06:46;99883.28;;;7.46;79.16
69982;BME280;57319;56.274;43.980;2022-09-03T02:09:17;99879.88;;;7.51;79.07
69982;BME280;57319;56.274;43.980;2022-09-03T02:11:47;99888.41;;;7.45;78.84
69982;BME280;57319;56.274;43.980;2022-09-03T02:14:16;99890.97;;;7.48;78.78
69982;BME280;57319;56.274;43.980;2022-09-03T02:16:42;99892.69;;;7.54;78.86
69982;BME280;57319;56.274;43.980;2022-09-03T02:19:15;99904.66;;;7.56;78.91
69982;BME280;57319;56.274;43.980;2022-09-03T02:21:49;99908.94;;;7.60;78.60
69982;BME280;57319;56.274;43.980;2022-09-03T02:24:16;99905.53;;;7.58;78.80
69982;BME280;57319;56.274;43.980;2022-09-03T02:26:42;99907.25;;;7.66;78.76
69982;BME280;57319;56.274;43.980;2022-09-03T02:29:09;99910.66;;;7.66;78.18
69982;BME280;57319;56.274;43.980;2022-09-03T02:31:35;99912.38;;;7.64;78.34
69982;BME280;57319;56.274;43.980;2022-09-03T02:34:01;99907.25;;;7.66;78.37
69982;BME280;57319;56.274;43.980;2022-09-03T02:36:36;99914.06;;;7.63;78.63
69982;BME280;57319;56.274;43.980;2022-09-03T02:39:03;99915.78;;;7.63;78.47
69982;BME280;57319;56.274;43.980;2022-09-03T02:41:30;99929.41;;;7.65;78.60
69982;BME280;57319;56.274;43.980;2022-09-03T02:44:12;99920.88;;;7.68;78.52
69982;BME280;57319;56.274;43.980;2022-09-03T02:46:54;99926.88;;;7.70;78.54
69982;BME280;57319;56.274;43.980;2022-09-03T02:49:21;99926.03;;;7.77;78.39
69982;BME280;57319;56.274;43.980;2022-09-03T02:51:47;99938.00;;;7.75;78.60
69982;BME280;57319;56.274;43.980;2022-09-03T02:54:13;99943.97;;;7.81;78.42
69982;BME280;57319;56.274;43.980;2022-09-03T02:56:39;99951.69;;;7.83;77.78
69982;BME280;57319;56.274;43.980;2022-09-03T02:59:07;99949.13;;;7.83;77.79
69982;BME280;57319;56.274;43.980;2022-09-03T03:01:34;99961.91;;;7.81;77.93
69982;BME280;57319;56.274;43.980;2022-09-03T03:04:00;99965.34;;;7.82;77.75
69982;BME280;57319;56.274;43.980;2022-09-03T03:06:25;99979.84;;;7.75;78.04
69982;BME280;57319;56.274;43.980;2022-09-03T03:08:51;99978.13;;;7.77;77.83
69982;BME280;57319;56.274;43.980;2022-09-03T03:11:21;99983.28;;;7.79;77.50
69982;BME280;57319;56.274;43.980;2022-09-03T03:13:48;99998.66;;;7.79;77.59
69982;BME280;57319;56.274;43.980;2022-09-03T03:16:16;99990.09;;;7.75;77.61
69982;BME280;57319;56.274;43.980;2022-09-03T03:18:42;99991.81;;;7.78;77.45
69982;BME280;57319;56.274;43.980;2022-09-03T03:21:12;99993.50;;;7.73;77.98
69982;BME280;57319;56.274;43.980;2022-09-03T03:23:38;100001.19;;;7.74;77.64
69982;BME280;57319;56.274;43.980;2022-09-03T03:26:07;99997.78;;;7.74;76.92
69982;BME280;57319;56.274;43.980;2022-09-03T03:28:33;100004.63;;;7.78;76.72
69982;BME280;57319;56.274;43.980;2022-09-03T03:31:06;100008.88;;;7.67;76.03
69982;BME280;57319;56.274;43.980;2022-09-03T03:33:32;100014.84;;;7.64;76.03
69982;BME280;57319;56.274;43.980;2022-09-03T03:36:06;100014.00;;;7.73;76.60
69982;BME280;57319;56.274;43.980;2022-09-03T03:38:32;100004.63;;;7.76;76.34
69982;BME280;57319;56.274;43.980;2022-09-03T03:40:58;100025.09;;;7.66;75.91
69982;BME280;57319;56.274;43.980;2022-09-03T03:43:24;100013.13;;;7.69;75.98
69982;BME280;57319;56.274;43.980;2022-09-03T03:45:57;100013.13;;;7.64;76.08
69982;BME280;57319;56.274;43.980;2022-09-03T03:48:23;100025.09;;;7.69;76.10
69982;BME280;57319;56.274;43.980;2022-09-03T03:50:49;100019.97;;;7.64;76.11
69982;BME280;57319;56.274;43.980;2022-09-03T03:53:15;100026.78;;;7.65;76.35
69982;BME280;57319;56.274;43.980;2022-09-03T03:55:41;100025.97;;;7.71;75.66
69982;BME280;57319;56.274;43.980;2022-09-03T03:58:07;100034.50;;;7.70;75.13
69982;BME280;57319;56.274;43.980;2022-09-03T04:00:32;100031.06;;;7.66;75.42
69982;BME280;57319;56.274;43.980;2022-09-03T04:03:03;100039.63;;;7.68;75.61
69982;BME280;57319;56.274;43.980;2022-09-03T04:05:29;100045.59;;;7.69;75.38
69982;BME280;57319;56.274;43.980;2022-09-03T04:07:55;100046.47;;;7.71;75.44
69982;BME280;57319;56.274;43.980;2022-09-03T04:10:20;100047.31;;;7.74;75.45
69982;BME280;57319;56.274;43.980;2022-09-03T04:12:46;100045.59;;;7.70;75.21
69982;BME280;57319;56.274;43.980;2022-09-03T04:15:11;100050.66;;;7.61;76.27
69982;BME280;57319;56.274;43.980;2022-09-03T04:17:37;100051.56;;;7.68;75.49
69982;BME280;57319;56.274;43.980;2022-09-03T04:20:04;100051.59;;;7.71;74.74
69982;BME280;57319;56.274;43.980;2022-09-03T04:22:30;100050.75;;;7.79;74.68
69982;BME280;57319;56.274;43.980;2022-09-03T04:24:55;100052.47;;;7.80;74.28
69982;BME280;57319;56.274;43.980;2022-09-03T04:27:21;100056.72;;;7.81;74.17
69982;BME280;57319;56.274;43.980;2022-09-03T04:29:47;100056.75;;;7.86;74.18
69982;BME280;57319;56.274;43.980;2022-09-03T04:32:12;100069.56;;;7.88;74.05
69982;BME280;57319;56.274;43.980;2022-09-03T04:34:56;100070.44;;;7.93;74.34
69982;BME280;57319;56.274;43.980;2022-09-03T04:37:22;100067.00;;;7.91;74.10
69982;BME280;57319;56.274;43.980;2022-09-03T04:39:48;100071.34;;;8.00;73.54
69982;BME280;57319;56.274;43.980;2022-09-03T04:42:13;100072.22;;;8.08;73.64
69982;BME280;57319;56.274;43.980;2022-09-03T04:44:39;100079.88;;;8.05;73.10
69982;BME280;57319;56.274;43.980;2022-09-03T04:47:05;100083.31;;;8.10;72.84
69982;BME280;57319;56.274;43.980;2022-09-03T04:49:31;100082.47;;;8.09;72.43
69982;BME280;57319;56.274;43.980;2022-09-03T04:51:56;100076.50;;;8.13;72.31
69982;BME280;57319;56.274;43.980;2022-09-03T04:54:22;100080.78;;;8.22;72.08
69982;BME280;57319;56.274;43.980;2022-09-03T04:56:48;100080.81;;;8.28;71.63
69982;BME280;57319;56.274;43.980;2022-09-03T04:59:14;100073.09;;;8.24;71.52
69982;BME280;57319;56.274;43.980;2022-09-03T05:01:40;100080.81;;;8.44;71.23
69982;BME280;57319;56.274;43.980;2022-09-03T05:04:07;100081.72;;;8.54;70.75
69982;BME280;57319;56.274;43.980;2022-09-03T05:06:34;100080.84;;;8.62;70.83
69982;BME280;57319;56.274;43.980;2022-09-03T05:09:01;100083.44;;;8.73;70.65
69982;BME280;57319;56.274;43.980;2022-09-03T05:11:28;100094.53;;;8.83;70.34
69982;BME280;57319;56.274;43.980;2022-09-03T05:13:56;100092.84;;;8.94;69.35
69982;BME280;57319;56.274;43.980;2022-09-03T05:16:23;100097.13;;;8.98;69.38
69982;BME280;57319;56.274;43.980;2022-09-03T05:18:53;100087.69;;;9.05;69.55
69982;BME280;57319;56.274;43.980;2022-09-03T05:21:20;100103.13;;;8.97;69.44
69982;BME280;57319;56.274;43.980;2022-09-03T05:23:48;100103.13;;;9.07;69.33
69982;BME280;57319;56.274;43.980;2022-09-03T05:26:23;100104.81;;;9.12;68.68
69982;BME280;57319;56.274;43.980;2022-09-03T05:29:01;100110.81;;;9.11;68.98
69982;BME280;57319;56.274;43.980;2022-09-03T05:31:29;100125.34;;;9.17;68.53
69982;BME280;57319;56.274;43.980;2022-09-03T05:33:57;100111.66;;;9.10;67.36
69982;BME280;57319;56.274;43.980;2022-09-03T05:36:26;100119.34;;;9.09;68.11
69982;BME280;57319;56.274;43.980;2022-09-03T05:38:52;100123.63;;;9.04;68.63
69982;BME280;57319;56.274;43.980;2022-09-03T05:41:19;100121.94;;;9.18;68.36
69982;BME280;57319;56.274;43.980;2022-09-03T05:43:49;100117.66;;;9.23;67.83
69982;BME280;57319;56.274;43.980;2022-09-03T05:46:19;100126.19;;;9.27;67.87
69982;BME280;57319;56.274;43.980;2022-09-03T05:48:45;100123.63;;;9.21;67.21
69982;BME280;57319;56.274;43.980;2022-09-03T05:51:13;100131.34;;;9.21;67.26
69982;BME280;57319;56.274;43.980;2022-09-03T05:53:42;100141.59;;;9.14;67.72
69982;BME280;57319;56.274;43.980;2022-09-03T05:56:11;100140.78;;;9.11;67.01
69982;BME280;57319;56.274;43.980;2022-09-03T05:58:41;100157.00;;;9.04;66.79
69982;BME280;57319;56.274;43.980;2022-09-03T06:01:20;100142.47;;;9.09;66.77
69982;BME280;57319;56.274;43.980;2022-09-03T06:03:53;100143.34;;;9.12;66.91
69982;BME280;57319;56.274;43.980;2022-09-03T06:06:20;100154.44;;;9.16;66.05
69982;BME280;57319;56.274;43.980;2022-09-03T06:08:58;100151.03;;;9.08;65.85
69982;BME280;57319;56.274;43.980;2022-09-03T06:11:25;100162.16;;;8.99;65.96
69982;BME280;57319;56.274;43.980;2022-09-03T06:13:53;100160.47;;;9.04;65.59
69982;BME280;57319;56.274;43.980;2022-09-03T06:16:19;100156.19;;;9.11;65.67
69982;BME280;57319;56.274;43.980;2022-09-03T06:18:46;100163.03;;;9.15;65.59
69982;BME280;57319;56.274;43.980;2022-09-03T06:21:12;100163.88;;;8.98;66.61
69982;BME280;57319;56.274;43.980;2022-09-03T06:23:39;100162.16;;;9.16;65.73
69982;BME280;57319;56.274;43.980;2022-09-03T06:26:10;100161.28;;;9.17;65.53
69982;BME280;57319;56.274;43.980;2022-09-03T06:28:39;100154.44;;;9.31;64.95
69982;BME280;57319;56.274;43.980;2022-09-03T06:31:09;100163.00;;;9.40;64.63
69982;BME280;57319;56.274;43.980;2022-09-03T06:33:36;100164.72;;;9.16;64.07
69982;BME280;57319;56.274;43.980;2022-09-03T06:36:05;100169.84;;;9.41;64.14
69982;BME280;57319;56.274;43.980;2022-09-03T06:38:33;100168.09;;;9.50;63.98
69982;BME280;57319;56.274;43.980;2022-09-03T06:41:09;100170.69;;;9.55;64.21
69982;BME280;57319;56.274;43.980;2022-09-03T06:43:38;100168.09;;;9.58;64.45
69982;BME280;57319;56.274;43.980;2022-09-03T06:46:15;100163.78;;;9.73;64.28
69982;BME280;57319;56.274;43.980;2022-09-03T06:48:41;100157.75;;;9.81;64.39
69982;BME280;57319;56.274;43.980;2022-09-03T06:51:17;100163.75;;;9.90;63.60
69982;BME280;57319;56.274;43.980;2022-09-03T06:53:47;100166.38;;;9.73;63.97
69982;BME280;57319;56.274;43.980;2022-09-03T06:56:21;100164.59;;;9.89;63.38
69982;BME280;57319;56.274;43.980;2022-09-03T06:58:55;100162.00;;;9.95;63.08
69982;BME280;57319;56.274;43.980;2022-09-03T07:01:23;100164.59;;;9.93;62.92
69982;BME280;57319;56.274;43.980;2022-09-03T07:03:57;100173.16;;;9.94;62.65
69982;BME280;57319;56.274;43.980;2022-09-03T07:06:29;100168.84;;;10.02;62.80
69982;BME280;57319;56.274;43.980;2022-09-03T07:08:56;100169.72;;;9.98;63.41
69982;BME280;57319;56.274;43.980;2022-09-03T07:11:26;100169.66;;;10.12;63.22
69982;BME280;57319;56.274;43.980;2022-09-03T07:13:52;100175.59;;;10.29;62.70
69982;BME280;57319;56.274;43.980;2022-09-03T07:16:28;100167.00;;;10.30;62.21
69982;BME280;57319;56.274;43.980;2022-09-03T07:18:55;100180.75;;;10.28;61.54
69982;BME280;57319;56.274;43.980;2022-09-03T07:21:25;100172.97;;;10.32;61.63
69982;BME280;57319;56.274;43.980;2022-09-03T07:23:52;100173.09;;;10.14;62.51
69982;BME280;57319;56.274;43.980;2022-09-03T07:26:23;100176.53;;;10.10;62.46
69982;BME280;57319;56.274;43.980;2022-09-03T07:28:49;100172.97;;;10.34;62.44
69982;BME280;57319;56.274;43.980;2022-09-03T07:31:18;100168.66;;;10.45;61.49
69982;BME280;57319;56.274;43.980;2022-09-03T07:33:46;100164.25;;;10.64;60.56
69982;BME280;57319;56.274;43.980;2022-09-03T07:36:14;100171.16;;;10.62;60.65
69982;BME280;57319;56.274;43.980;2022-09-03T07:38:41;100171.16;;;10.61;59.88
69982;BME280;57319;56.274;43.980;2022-09-03T07:41:09;100178.13;;;10.35;60.16
69982;BME280;57319;56.274;43.980;2022-09-03T07:43:37;100169.63;;;10.21;61.27
69982;BME280;57319;56.274;43.980;2022-09-03T07:46:09;100179.00;;;10.38;60.30
69982;BME280;57319;56.274;43.980;2022-09-03T07:48:39;100178.09;;;10.46;60.54
69982;BME280;57319;56.274;43.980;2022-09-03T07:51:05;100191.75;;;10.59;60.33
69982;BME280;57319;56.274;43.980;2022-09-03T07:53:31;100184.88;;;10.61;59.54
69982;BME280;57319;56.274;43.980;2022-09-03T07:56:05;100188.34;;;10.56;60.23
69982;BME280;57319;56.274;43.980;2022-09-03T07:58:32;100193.47;;;10.63;60.46
69982;BME280;57319;56.274;43.980;2022-09-03T08:01:06;100196.03;;;10.63;60.72
69982;BME280;57319;56.274;43.980;2022-09-03T08:03:36;100195.06;;;10.77;59.83
69982;BME280;57319;56.274;43.980;2022-09-03T08:06:06;100200.16;;;10.88;59.06
69982;BME280;57319;56.274;43.980;2022-09-03T08:08:33;100188.19;;;10.82;59.18
69982;BME280;57319;56.274;43.980;2022-09-03T08:11:09;100195.91;;;10.80;58.98
69982;BME280;57319;56.274;43.980;2022-09-03T08:13:46;100199.34;;;10.84;58.83
69982;BME280;57319;56.274;43.980;2022-09-03T08:16:16;100198.41;;;10.91;58.32
69982;BME280;57319;56.274;43.980;2022-09-03T08:18:45;100199.28;;;10.89;57.44
69982;BME280;57319;56.274;43.980;2022-09-03T08:21:14;100195.88;;;10.88;57.74
69982;BME280;57319;56.274;43.980;2022-09-03T08:23:46;100195.06;;;10.81;57.68
69982;BME280;57319;56.274;43.980;2022-09-03T08:26:13;100209.63;;;10.85;57.48
69982;BME280;57319;56.274;43.980;2022-09-03T08:28:40;100212.19;;;10.87;57.95
69982;BME280;57319;56.274;43.980;2022-09-03T08:31:10;100212.91;;;11.03;57.55
69982;BME280;57319;56.274;43.980;2022-09-03T08:33:40;100220.63;;;11.08;56.04
69982;BME280;57319;56.274;43.980;2022-09-03T08:36:10;100209.50;;;11.02;56.52
69982;BME280;57319;56.274;43.980;2022-09-03T08:38:41;100212.91;;;11.03;56.51
69982;BME280;57319;56.274;43.980;2022-09-03T08:44:00;100221.53;;;10.97;56.45
69982;BME280;57319;56.274;43.980;2022-09-03T08:52:05;100235.13;;;11.23;55.49
69982;BME280;57319;56.274;43.980;2022-09-03T08:54:34;100225.63;;;11.29;55.92
69982;BME280;57319;56.274;43.980;2022-09-03T08:57:02;100223.81;;;11.41;55.53
69982;BME280;57319;56.274;43.980;2022-09-03T08:59:31;100238.38;;;11.40;55.92
69982;BME280;57319;56.274;43.980;2022-09-03T09:05:11;100242.06;;;11.08;56.09
69982;BME280;57319;56.274;43.980;2022-09-03T09:10:19;100236.84;;;11.20;56.23
69982;BME280;57319;56.274;43.980;2022-09-03T09:20:52;100242.75;;;11.30;54.30
69982;BME280;57319;56.274;43.980;2022-09-03T09:23:34;100238.56;;;11.22;55.00
69982;BME280;57319;56.274;43.980;2022-09-03T09:26:06;100236.69;;;11.39;55.46
69982;BME280;57319;56.274;43.980;2022-09-03T09:28:35;100236.50;;;11.62;55.20
69982;BME280;57319;56.274;43.980;2022-09-03T09:31:04;100238.03;;;11.82;54.89
69982;BME280;57319;56.274;43.980;2022-09-03T09:33:32;100237.09;;;11.89;54.72
69982;BME280;57319;56.274;43.980;2022-09-03T09:36:02;100231.13;;;11.84;55.18
69982;BME280;57319;56.274;43.980;2022-09-03T09:38:30;100236.25;;;11.85;54.99
69982;BME280;57319;56.274;43.980;2022-09-03T09:41:17;100241.38;;;11.92;55.03
69982;BME280;57319;56.274;43.980;2022-09-03T09:43:44;100232.88;;;11.80;54.04
69982;BME280;57319;56.274;43.980;2022-09-03T09:46:21;100233.38;;;12.18;53.04
69982;BME280;57319;56.274;43.980;2022-09-03T09:48:52;100245.28;;;12.27;52.53
69982;BME280;57319;56.274;43.980;2022-09-03T09:51:24;100241.69;;;12.42;52.44
69982;BME280;57319;56.274;43.980;2022-09-03T09:54:23;100252.72;;;12.54;50.71
69982;BME280;57319;56.274;43.980;2022-09-03T09:57:22;100247.78;;;12.36;50.30
69982;BME280;57319;56.274;43.980;2022-09-03T09:59:48;100235.19;;;12.08;51.29
69982;BME280;57319;56.274;43.980;2022-09-03T10:02:23;100241.44;;;11.87;51.75
69982;BME280;57319;56.274;43.980;2022-09-03T10:05:00;100243.06;;;11.96;51.37
69982;BME280;57319;56.274;43.980;2022-09-03T10:07:29;100237.84;;;12.00;51.54
69982;BME280;57319;56.274;43.980;2022-09-03T10:10:15;100233.53;;;12.04;51.00
69982;BME280;57319;56.274;43.980;2022-09-03T10:12:44;100233.50;;;12.05;51.49
69982;BME280;57319;56.274;43.980;2022-09-03T10:23:25;100241.81;;;12.29;49.54
69982;BME280;57319;56.274;43.980;2022-09-03T10:26:22;100239.16;;;12.38;49.39
69982;BME280;57319;56.274;43.980;2022-09-03T10:28:56;100233.13;;;12.39;50.51
69982;BME280;57319;56.274;43.980;2022-09-03T10:40:09;100235.06;;;12.87;49.07
69982;BME280;57319;56.274;43.980;2022-09-03T10:42:52;100237.50;;;12.95;49.01
69982;BME280;57319;56.274;43.980;2022-09-03T10:51:16;100238.31;;;13.00;48.79
69982;BME280;57319;56.274;43.980;2022-09-03T10:56:41;100232.59;;;13.37;48.45
69982;BME280;57319;56.274;43.980;2022-09-03T11:02:32;100231.47;;;12.96;47.96
69982;BME280;57319;56.274;43.980;2022-09-03T11:05:19;100215.50;;;12.69;48.15
69982;BME280;57319;56.274;43.980;2022-09-03T11:07:52;100234.53;;;12.62;48.67
69982;BME280;57319;56.274;43.980;2022-09-03T11:10:28;100241.63;;;12.48;48.82
69982;BME280;57319;56.274;43.980;2022-09-03T11:15:27;100240.03;;;12.36;49.02
69982;BME280;57319;56.274;43.980;2022-09-03T11:20:27;100226.00;;;12.59;48.84
69982;BME280;57319;56.274;43.980;2022-09-03T11:23:03;100216.13;;;12.85;47.85
69982;BME280;57319;56.274;43.980;2022-09-03T11:25:36;100223.72;;;12.96;47.20
69982;BME280;57319;56.274;43.980;2022-09-03T11:28:26;100213.84;;;13.23;46.76
69982;BME280;57319;56.274;43.980;2022-09-03T11:33:52;100210.47;;;13.69;43.58
69982;BME280;57319;56.274;43.980;2022-09-03T11:36:34;100216.31;;;13.79;44.67
69982;BME280;57319;56.274;43.980;2022-09-03T11:39:33;100210.47;;;13.69;44.58
69982;BME280;57319;56.274;43.980;2022-09-03T11:42:37;100227.06;;;13.59;44.68
69982;BME280;57319;56.274;43.980;2022-09-03T11:45:45;100231.13;;;13.71;44.48
69982;BME280;57319;56.274;43.980;2022-09-03T11:48:44;100214.94;;;14.06;43.56
69982;BME280;57319;56.274;43.980;2022-09-03T11:56:40;100223.28;;;15.02;42.38
69982;BME280;57319;56.274;43.980;2022-09-03T11:59:21;100222.38;;;14.66;42.85
69982;BME280;57319;56.274;43.980;2022-09-03T12:02:26;100221.81;;;14.92;41.71
69982;BME280;57319;56.274;43.980;2022-09-03T12:08:03;100223.63;;;14.46;42.53
69982;BME280;57319;56.274;43.980;2022-09-03T12:10:39;100218.34;;;13.63;44.09
69982;BME280;57319;56.274;43.980;2022-09-03T12:13:30;100219.22;;;13.11;45.42
69982;BME280;57319;56.274;43.980;2022-09-03T12:18:44;100215.78;;;13.63;43.75
69982;BME280;57319;56.274;43.980;2022-09-03T12:21:16;100217.84;;;13.43;44.92
69982;BME280;57319;56.274;43.980;2022-09-03T12:23:51;100216.16;;;13.40;45.47
69982;BME280;57319;56.274;43.980;2022-09-03T12:26:25;100221.47;;;13.29;45.63
69982;BME280;57319;56.274;43.980;2022-09-03T12:28:56;100225.06;;;13.22;45.21
69982;BME280;57319;56.274;43.980;2022-09-03T12:31:29;100227.78;;;13.13;44.83
69982;BME280;57319;56.274;43.980;2022-09-03T12:34:08;100232.09;;;13.12;45.13
69982;BME280;57319;56.274;43.980;2022-09-03T12:36:47;100219.19;;;13.12;45.12
69982;BME280;57319;56.274;43.980;2022-09-03T12:39:20;100219.81;;;13.25;44.94
69982;BME280;57319;56.274;43.980;2022-09-03T12:44:37;100222.63;;;13.11;43.06
69982;BME280;57319;56.274;43.980;2022-09-03T12:47:17;100219.66;;;13.37;42.93
69982;BME280;57319;56.274;43.980;2022-09-03T12:49:48;100219.25;;;14.07;41.46
69982;BME280;57319;56.274;43.980;2022-09-03T12:57:40;100216.81;;;15.20;40.18
69982;BME280;57319;56.274;43.980;2022-09-03T13:00:15;100215.56;;;14.63;40.26
69982;BME280;57319;56.274;43.980;2022-09-03T13:02:50;100218.06;;;15.04;39.63
69982;BME280;57319;56.274;43.980;2022-09-03T13:05:22;100215.19;;;15.85;38.56
69982;BME280;57319;56.274;43.980;2022-09-03T13:07:56;100214.19;;;15.89;38.27
69982;BME280;57319;56.274;43.980;2022-09-03T13:10:35;100213.22;;;15.26;39.02
69982;BME280;57319;56.274;43.980;2022-09-03T13:27:15;100209.50;;;14.20;42.11
69982;BME280;57319;56.274;43.980;2022-09-03T13:29:46;100198.88;;;14.33;40.97
69982;BME280;57319;56.274;43.980;2022-09-03T13:34:56;100203.84;;;14.43;41.24
69982;BME280;57319;56.274;43.980;2022-09-03T13:37:48;100197.94;;;14.38;40.25
69982;BME280;57319;56.274;43.980;2022-09-03T13:43:21;100206.94;;;14.19;41.24
69982;BME280;57319;56.274;43.980;2022-09-03T13:48:42;100200.53;;;13.95;39.63
69982;BME280;57319;56.274;43.980;2022-09-03T13:51:39;100201.91;;;13.67;41.22
69982;BME280;57319;56.274;43.980;2022-09-03T13:56:59;100200.03;;;13.76;41.53
69982;BME280;57319;56.274;43.980;2022-09-03T13:59:44;100208.03;;;13.62;41.53
69982;BME280;57319;56.274;43.980;2022-09-03T14:11:29;100196.41;;;13.36;42.42
69982;BME280;57319;56.274;43.980;2022-09-03T14:20:07;100194.94;;;13.19;43.13
69982;BME280;57319;56.274;43.980;2022-09-03T14:23:02;100207.69;;;13.30;42.72
69982;BME280;57319;56.274;43.980;2022-09-03T14:25:55;100196.59;;;13.23;42.60
69982;BME280;57319;56.274;43.980;2022-09-03T14:28:39;100184.47;;;13.26;42.35
69982;BME280;57319;56.274;43.980;2022-09-03T14:37:11;100192.38;;;13.18;43.05
69982;BME280;57319;56.274;43.980;2022-09-03T14:39:51;100191.41;;;13.25;42.75
69982;BME280;57319;56.274;43.980;2022-09-03T14:45:11;100190.25;;;13.43;42.44
69982;BME280;57319;56.274;43.980;2022-09-03T14:48:12;100189.78;;;13.69;41.76
69982;BME280;57319;56.274;43.980;2022-09-03T14:56:38;100193.25;;;13.17;42.38
69982;BME280;57319;56.274;43.980;2022-09-03T14:59:30;100186.88;;;12.85;42.88
69982;BME280;57319;56.274;43.980;2022-09-03T15:07:52;100190.75;;;12.54;44.25
69982;BME280;57319;56.274;43.980;2022-09-03T15:12:58;100189.09;;;12.47;44.32
69982;BME280;57319;56.274;43.980;2022-09-03T15:15:32;100186.69;;;12.35;44.62
69982;BME280;57319;56.274;43.980;2022-09-03T15:18:39;100193.69;;;12.27;45.02
69982;BME280;57319;56.274;43.980;2022-09-03T15:29:50;100205.09;;;12.09;46.45
69982;BME280;57319;56.274;43.980;2022-09-03T15:41:00;100199.25;;;11.91;46.67
69982;BME280;57319;56.274;43.980;2022-09-03T15:43:41;100200.16;;;11.85;46.45
69982;BME280;57319;56.274;43.980;2022-09-03T15:46:49;100200.22;;;11.81;46.91
69982;BME280;57319;56.274;43.980;2022-09-03T15:54:56;100194.38;;;11.62;48.06
69982;BME280;57319;56.274;43.980;2022-09-03T15:57:34;100208.16;;;11.59;48.60
69982;BME280;57319;56.274;43.980;2022-09-03T16:00:11;100209.03;;;11.57;48.51
69982;BME280;57319;56.274;43.980;2022-09-03T16:02:58;100208.25;;;11.47;48.58
69982;BME280;57319;56.274;43.980;2022-09-03T16:05:49;100206.59;;;11.46;49.13
69982;BME280;57319;56.274;43.980;2022-09-03T16:08:28;100205.75;;;11.41;49.22
69982;BME280;57319;56.274;43.980;2022-09-03T16:13:54;100218.72;;;11.31;49.53
69982;BME280;57319;56.274;43.980;2022-09-03T16:16:30;100209.38;;;11.18;50.25
69982;BME280;57319;56.274;43.980;2022-09-03T16:27:23;100219.03;;;10.90;52.88
69982;BME280;57319;56.274;43.980;2022-09-03T16:47:54;100232.16;;;10.34;56.44
69982;BME280;57319;56.274;43.980;2022-09-03T16:50:50;100242.47;;;10.31;56.50
69982;BME280;57319;56.274;43.980;2022-09-03T16:53:44;100241.59;;;10.27;56.64
69982;BME280;57319;56.274;43.980;2022-09-03T17:10:51;100251.13;;;10.05;57.85
69982;BME280;57319;56.274;43.980;2022-09-03T17:25:01;100258.03;;;9.91;59.16
69982;BME280;57319;56.274;43.980;2022-09-03T17:27:49;100258.88;;;9.79;59.90
69982;BME280;57319;56.274;43.980;2022-09-03T17:30:18;100260.63;;;9.77;60.05
69982;BME280;57319;56.274;43.980;2022-09-03T17:33:06;100249.47;;;9.73;60.33
69982;BME280;57319;56.274;43.980;2022-09-03T17:36:11;100250.31;;;9.72;60.04
69982;BME280;57319;56.274;43.980;2022-09-03T17:39:12;100244.31;;;9.73;60.18
69982;BME280;57319;56.274;43.980;2022-09-03T17:41:53;100248.63;;;9.73;60.12
69982;BME280;57319;56.274;43.980;2022-09-03T17:49:33;100248.63;;;9.63;61.28